Main page
METAR-TAF:

METAR-TAF

Airports :

Al-Hasa, Saudi Arabia

Al-Ahsa International Airport

latitude: 25-18N, longitude: 049-29E, elevation: 179 m

Current weather observation

The report was made 25 minutes ago, at 20:00 UTC
Wind 7 kt from the North/Northwest
Temperature 15°C
Humidity 51%
Pressure 1024 hPa
Visibility 10 km or more
no clouds below 1500 m and no cumulonimbus

METAR: OEAH 182000Z 33007KT CAVOK 15/05 Q1024 NOSIG

Time: 23:25 (20:25 UTC)

Forecast

The report was made 9 hours and 25 minutes ago, at 11:00 UTC
Forecast valid from 18 at 12 UTC to 19 at 18 UTC
Wind 12 kt from the North/Northwest
Visibility: 7000 m
Clear sky
Temporary
from 18 at 12 UTC to 18 at 18 UTC
Visibility: 4000 m
widespread dust

TAF: OEAH 181100Z 1812/1918 34012KT 7000 SKC TEMPO 1812/1818 4000 DU

Weather observations and forecasts of more than 4000 airports (METAR and TAF reports).

The available stations are represented by yellow and red dots on the map.

Hover mouse over dot to see the name of the station.

Then click to see weather observations and forecasts.

To change the map : click on the green buttons with a black cross to zoom in, on the green button with a dash to zoom out, or on the green arrows for adjacent maps.


METAR-TAF: